createdAt,value
2022-08-16T00:02:30.310Z,9.90
2022-08-16T00:04:59.602Z,11.25
2022-08-16T00:07:30.598Z,10.40
2022-08-16T00:09:59.067Z,10.20
2022-08-16T00:12:28.556Z,8.60
2022-08-16T00:14:57.370Z,9.70
2022-08-16T00:17:28.162Z,8.80
2022-08-16T00:19:55.989Z,9.25
2022-08-16T00:22:25.366Z,8.82
2022-08-16T00:24:54.560Z,9.40
2022-08-16T00:27:23.080Z,9.70
2022-08-16T00:30:08.401Z,10.63
2022-08-16T00:32:38.468Z,9.25
2022-08-16T00:35:15.251Z,9.48
2022-08-16T00:37:57.451Z,10.43
2022-08-16T00:40:43.838Z,10.70
2022-08-16T00:43:43.174Z,10.02
2022-08-16T00:46:32.788Z,9.95
2022-08-16T00:49:02.813Z,11.30
2022-08-16T00:51:30.462Z,9.85
2022-08-16T00:53:57.839Z,10.23
2022-08-16T00:56:58.010Z,12.93
2022-08-16T00:59:19.224Z,9.30
2022-08-16T01:01:46.654Z,11.52
2022-08-16T01:04:29.070Z,10.60
2022-08-16T01:07:02.345Z,10.13
2022-08-16T01:09:37.315Z,11.38
2022-08-16T01:12:08.457Z,9.98
2022-08-16T01:14:50.774Z,11.57
2022-08-16T01:17:24.186Z,10.98
2022-08-16T01:19:59.399Z,10.52
2022-08-16T01:23:01.723Z,10.23
2022-08-16T01:25:37.052Z,11.07
2022-08-16T01:28:09.771Z,12.82
2022-08-16T01:30:49.660Z,10.90
2022-08-16T01:33:19.293Z,13.25
2022-08-16T01:36:11.991Z,11.20
2022-08-16T01:38:48.849Z,12.68
2022-08-16T01:41:21.522Z,12.52
2022-08-16T01:43:53.682Z,11.93
2022-08-16T01:46:39.567Z,12.18
2022-08-16T01:49:43.468Z,11.85
2022-08-16T01:52:29.301Z,11.07
2022-08-16T01:54:57.361Z,11.70
2022-08-16T01:57:24.725Z,12.60
2022-08-16T01:59:54.743Z,11.88
2022-08-16T02:02:28.394Z,13.63
2022-08-16T02:04:56.198Z,11.38
2022-08-16T02:07:24.718Z,13.40
2022-08-16T02:09:57.267Z,13.25
2022-08-16T02:12:50.155Z,11.60
2022-08-16T02:15:16.959Z,12.15
2022-08-16T02:17:43.954Z,14.38
2022-08-16T02:20:12.360Z,11.93
2022-08-16T02:22:39.985Z,13.05
2022-08-16T02:25:10.879Z,12.75
2022-08-16T02:27:42.812Z,15.07
2022-08-16T02:30:37.452Z,14.40
2022-08-16T02:33:06.212Z,13.35
2022-08-16T02:35:34.274Z,15.25
2022-08-16T02:38:16.885Z,13.57
2022-08-16T02:40:45.781Z,16.90
2022-08-16T02:43:13.577Z,13.10
2022-08-16T02:45:41.505Z,12.60
2022-08-16T02:48:30.563Z,14.95
2022-08-16T02:51:06.784Z,16.55
2022-08-16T02:53:44.649Z,15.25
2022-08-16T02:56:15.161Z,13.07
2022-08-16T02:58:44.223Z,13.48
2022-08-16T03:01:24.241Z,14.82
2022-08-16T03:04:29.628Z,17.08
2022-08-16T03:06:48.019Z,15.52
2022-08-16T03:09:18.104Z,15.73
2022-08-16T03:11:47.328Z,16.00
2022-08-16T03:14:14.679Z,15.48
2022-08-16T03:16:59.693Z,13.63
2022-08-16T03:19:48.770Z,16.52
2022-08-16T03:22:19.447Z,14.38
2022-08-16T03:24:57.546Z,13.40
2022-08-16T03:27:25.188Z,15.68
2022-08-16T03:29:59.970Z,13.27
2022-08-16T03:32:26.739Z,13.45
2022-08-16T03:34:53.500Z,14.13
2022-08-16T03:37:20.269Z,14.02
2022-08-16T03:39:47.514Z,13.88
2022-08-16T03:42:20.453Z,13.70
2022-08-16T03:44:50.168Z,12.38
2022-08-16T03:47:19.035Z,15.80
2022-08-16T03:49:51.743Z,17.27
2022-08-16T03:52:23.367Z,13.63
2022-08-16T03:54:57.783Z,11.82
2022-08-16T03:57:31.841Z,13.65
2022-08-16T04:00:35.042Z,12.73
2022-08-16T04:03:08.712Z,13.88
2022-08-16T04:05:39.180Z,15.90
2022-08-16T04:08:24.098Z,12.40
2022-08-16T04:10:54.011Z,12.07
2022-08-16T04:14:01.515Z,12.45
2022-08-16T04:16:09.481Z,13.23
2022-08-16T04:18:54.391Z,12.75
2022-08-16T04:21:31.022Z,12.85
2022-08-16T04:23:59.598Z,12.98
2022-08-16T04:26:31.233Z,12.68
2022-08-16T04:29:15.192Z,12.70
2022-08-16T04:31:56.341Z,12.43
2022-08-16T04:34:27.474Z,12.98
2022-08-16T04:36:56.770Z,13.18
2022-08-16T04:39:24.495Z,13.48
2022-08-16T04:42:11.205Z,14.40
2022-08-16T04:44:53.434Z,13.63
2022-08-16T04:47:24.637Z,12.68
2022-08-16T04:49:52.679Z,13.45
2022-08-16T04:52:34.468Z,13.38
2022-08-16T04:55:19.743Z,15.07
2022-08-16T04:57:53.436Z,12.20
2022-08-16T05:00:31.969Z,13.98
2022-08-16T05:03:11.145Z,13.27
2022-08-16T05:05:45.307Z,12.73
2022-08-16T05:08:30.727Z,12.93
2022-08-16T05:11:05.761Z,12.02
2022-08-16T05:13:40.768Z,13.48
2022-08-16T05:16:20.344Z,13.27
2022-08-16T05:18:51.725Z,12.68
2022-08-16T05:21:20.660Z,12.90
2022-08-16T05:23:55.527Z,13.98
2022-08-16T05:26:28.089Z,12.90
2022-08-16T05:28:57.235Z,13.18
2022-08-16T05:31:29.664Z,12.00
2022-08-16T05:33:59.736Z,14.73
2022-08-16T05:36:33.883Z,14.43
2022-08-16T05:41:45.186Z,14.20
2022-08-16T05:44:22.523Z,12.30
2022-08-16T05:47:00.244Z,13.70
2022-08-16T05:49:39.906Z,13.48
2022-08-16T05:52:13.591Z,14.85
2022-08-16T05:54:47.672Z,14.25
2022-08-16T05:57:17.257Z,11.35
2022-08-16T05:59:47.321Z,12.95
2022-08-16T06:02:18.306Z,14.52
2022-08-16T06:04:45.751Z,12.40
2022-08-16T06:07:25.047Z,12.20
2022-08-16T06:09:59.648Z,12.00
2022-08-16T06:12:29.059Z,11.77
2022-08-16T06:15:07.644Z,11.82
2022-08-16T06:17:41.525Z,12.27
2022-08-16T06:20:23.721Z,11.65
2022-08-16T06:23:03.068Z,11.60
2022-08-16T06:25:36.474Z,11.50
2022-08-16T06:28:09.631Z,13.98
2022-08-16T06:30:43.897Z,13.38
2022-08-16T06:33:22.273Z,11.45
2022-08-16T06:35:50.715Z,11.93
2022-08-16T06:38:33.413Z,14.43
2022-08-16T06:41:06.535Z,10.05
2022-08-16T06:43:41.999Z,11.95
2022-08-16T06:46:22.038Z,11.57
2022-08-16T06:48:51.848Z,14.38
2022-08-16T06:51:18.722Z,10.57
2022-08-16T06:53:46.089Z,9.50
2022-08-16T06:56:14.747Z,10.77
2022-08-16T06:58:51.944Z,10.35
2022-08-16T07:01:25.593Z,11.60
2022-08-16T07:04:10.288Z,10.05
2022-08-16T07:06:37.853Z,10.15
2022-08-16T07:09:09.759Z,9.20
2022-08-16T07:11:48.105Z,9.10
2022-08-16T07:14:25.893Z,11.38
2022-08-16T07:16:55.796Z,12.35
2022-08-16T07:19:33.495Z,12.32
2022-08-16T07:22:38.285Z,10.27
2022-08-16T07:25:00.252Z,9.45
2022-08-16T07:27:27.617Z,9.20
2022-08-16T07:29:56.266Z,10.13
2022-08-16T07:32:29.744Z,10.25
2022-08-16T07:34:58.946Z,10.95
2022-08-16T07:37:25.758Z,9.75
2022-08-16T07:39:54.601Z,13.02
2022-08-16T07:42:28.311Z,13.38
2022-08-16T07:45:07.484Z,11.95
2022-08-16T07:47:37.412Z,10.13
2022-08-16T07:50:07.785Z,14.30
2022-08-16T07:52:35.173Z,12.30
2022-08-16T07:55:08.034Z,9.98
2022-08-16T07:57:44.403Z,10.35
2022-08-16T08:00:25.748Z,13.48
2022-08-16T08:02:55.465Z,11.88
2022-08-16T08:05:35.302Z,11.70
2022-08-16T08:08:11.935Z,12.07
2022-08-16T08:10:52.002Z,16.67
2022-08-16T08:13:18.788Z,14.75
2022-08-16T08:15:53.050Z,14.20
2022-08-16T08:18:30.212Z,15.80
2022-08-16T08:20:59.146Z,13.77
2022-08-16T08:23:27.641Z,12.65
2022-08-16T08:25:55.884Z,12.80
2022-08-16T08:28:23.444Z,13.63
2022-08-16T08:31:01.390Z,12.63
2022-08-16T08:33:31.378Z,14.32
2022-08-16T08:36:00.817Z,13.23
2022-08-16T08:38:45.218Z,15.13
2022-08-16T08:41:18.203Z,14.75
2022-08-16T08:43:46.253Z,14.00
2022-08-16T08:46:17.838Z,16.25
2022-08-16T08:49:01.977Z,19.52
2022-08-16T08:51:31.861Z,17.60
2022-08-16T08:54:09.483Z,20.88
2022-08-16T08:59:20.347Z,14.10
2022-08-16T09:01:57.441Z,15.27
2022-08-16T09:04:26.882Z,15.30
2022-08-16T09:06:55.600Z,13.63
2022-08-16T09:09:23.459Z,13.93
2022-08-16T09:11:53.456Z,15.50
2022-08-16T09:14:25.163Z,17.42
2022-08-16T09:17:02.417Z,14.80
2022-08-16T09:19:33.000Z,13.57
2022-08-16T09:22:00.939Z,15.05
2022-08-16T09:24:46.591Z,18.05
2022-08-16T09:27:15.991Z,17.85
2022-08-16T09:29:45.297Z,16.92
2022-08-16T09:32:28.610Z,16.60
2022-08-16T09:34:58.461Z,16.25
2022-08-16T09:37:29.608Z,14.93
2022-08-16T09:40:01.199Z,16.67
2022-08-16T09:42:29.441Z,13.20
2022-08-16T09:45:11.272Z,13.00
2022-08-16T09:47:56.965Z,14.98
2022-08-16T09:50:36.755Z,17.75
2022-08-16T09:53:24.519Z,14.98
2022-08-16T09:55:56.817Z,14.20
2022-08-16T09:58:40.596Z,16.73
2022-08-16T10:01:18.973Z,18.67
2022-08-16T10:04:02.595Z,15.30
2022-08-16T10:06:33.454Z,13.60
2022-08-16T10:09:08.334Z,12.35
2022-08-16T10:12:11.443Z,16.27
2022-08-16T10:14:46.507Z,16.50
2022-08-16T10:17:13.535Z,16.80
2022-08-16T10:19:41.683Z,16.38
2022-08-16T10:22:13.045Z,9.75
2022-08-16T10:24:56.218Z,16.23
2022-08-16T10:27:47.014Z,16.00
2022-08-16T10:30:26.008Z,14.13
2022-08-16T10:32:56.177Z,15.65
2022-08-16T10:35:23.513Z,15.05
2022-08-16T10:37:52.364Z,15.05
2022-08-16T10:40:28.967Z,17.92
2022-08-16T10:43:00.340Z,15.13
2022-08-16T10:45:36.995Z,15.13
2022-08-16T10:48:27.251Z,15.85
2022-08-16T10:50:58.641Z,12.90
2022-08-16T10:53:33.030Z,15.77
2022-08-16T10:56:02.435Z,16.40
2022-08-16T10:58:33.997Z,15.15
2022-08-16T11:03:57.292Z,14.63
2022-08-16T11:06:26.908Z,10.13
2022-08-16T11:14:30.755Z,10.88
2022-08-16T11:17:09.061Z,10.48
2022-08-16T11:20:00.738Z,10.80
2022-08-16T11:22:47.038Z,9.23
2022-08-16T11:25:15.177Z,10.32
2022-08-16T11:28:01.255Z,9.55
2022-08-16T11:30:38.834Z,8.43
2022-08-16T11:33:07.041Z,9.15
2022-08-16T11:38:47.511Z,7.22
2022-08-16T11:41:10.737Z,8.63
2022-08-16T11:43:39.309Z,8.82
2022-08-16T11:46:34.173Z,7.85
2022-08-16T11:48:57.002Z,8.45
2022-08-16T11:51:23.729Z,8.25
2022-08-16T11:53:51.703Z,6.25
2022-08-16T11:56:28.571Z,7.00
2022-08-16T11:59:06.518Z,7.70
2022-08-16T12:01:44.165Z,8.48
2022-08-16T12:04:22.368Z,5.95
2022-08-16T12:06:50.140Z,7.72
2022-08-16T12:09:21.863Z,8.23
2022-08-16T12:11:52.526Z,9.60
2022-08-16T12:14:22.978Z,6.82
2022-08-16T12:16:55.571Z,9.52
2022-08-16T12:19:33.454Z,5.63
2022-08-16T12:22:01.627Z,7.32
2022-08-16T12:24:33.727Z,8.38
2022-08-16T12:27:02.206Z,6.60
2022-08-16T12:29:30.102Z,7.35
2022-08-16T12:32:00.892Z,8.50
2022-08-16T12:34:39.800Z,8.18
2022-08-16T12:37:18.120Z,8.38
2022-08-16T12:39:50.894Z,7.40
2022-08-16T12:42:19.485Z,7.75
2022-08-16T12:44:50.363Z,6.88
2022-08-16T12:47:36.234Z,6.05
2022-08-16T12:50:03.927Z,6.47
2022-08-16T12:52:33.691Z,7.15
2022-08-16T12:55:03.118Z,7.65
2022-08-16T12:57:36.252Z,6.25
2022-08-16T13:00:13.150Z,5.55
2022-08-16T13:02:54.012Z,5.60
2022-08-16T13:05:22.216Z,7.78
2022-08-16T13:07:51.300Z,5.30
2022-08-16T13:10:36.805Z,6.47
2022-08-16T13:13:05.927Z,6.40
2022-08-16T13:15:36.158Z,6.43
2022-08-16T13:18:24.099Z,5.47
2022-08-16T13:20:54.325Z,5.63
2022-08-16T13:23:23.294Z,7.03
2022-08-16T13:25:51.469Z,7.65
2022-08-16T13:28:22.463Z,6.45
2022-08-16T13:30:53.599Z,6.18
2022-08-16T13:33:36.987Z,5.95
2022-08-16T13:36:17.008Z,6.53
2022-08-16T13:38:53.046Z,7.65
2022-08-16T13:41:21.318Z,5.75
2022-08-16T13:43:55.084Z,7.25
2022-08-16T13:46:26.280Z,8.25
2022-08-16T13:48:53.427Z,7.55
2022-08-16T13:51:23.920Z,5.88
2022-08-16T13:54:02.613Z,9.90
2022-08-16T13:56:39.655Z,8.77
2022-08-16T13:59:16.578Z,8.65
2022-08-16T14:01:55.607Z,6.13
2022-08-16T14:04:31.955Z,7.90
2022-08-16T14:07:01.353Z,8.30
2022-08-16T14:09:30.247Z,8.10
2022-08-16T14:11:58.556Z,8.30
2022-08-16T14:14:29.098Z,9.32
2022-08-16T14:17:02.281Z,7.72
2022-08-16T14:19:30.072Z,6.35
2022-08-16T14:22:14.429Z,7.22
2022-08-16T14:24:46.839Z,8.80
2022-08-16T14:27:19.513Z,8.93
2022-08-16T14:29:49.896Z,7.38
2022-08-16T14:32:33.069Z,9.10
2022-08-16T14:35:04.361Z,8.65
2022-08-16T14:37:31.849Z,7.10
2022-08-16T14:39:59.027Z,7.53
2022-08-16T14:42:26.775Z,8.63
2022-08-16T14:44:54.203Z,8.82
2022-08-16T14:47:22.428Z,8.77
2022-08-16T14:49:49.776Z,8.50
2022-08-16T14:52:44.552Z,6.47
2022-08-16T14:55:10.829Z,7.63
2022-08-16T14:57:39.840Z,11.20
2022-08-16T15:00:11.014Z,7.93
2022-08-16T15:02:39.246Z,10.85
2022-08-16T15:05:09.488Z,8.60
2022-08-16T15:07:36.633Z,5.70
2022-08-16T15:10:21.588Z,7.85
2022-08-16T15:12:56.319Z,7.72
2022-08-16T15:15:28.067Z,6.88
2022-08-16T15:17:56.976Z,7.90
2022-08-16T15:20:30.069Z,7.85
2022-08-16T15:22:58.569Z,9.32
2022-08-16T15:25:43.867Z,7.63
2022-08-16T15:28:30.701Z,7.10
2022-08-16T15:31:03.829Z,6.18
2022-08-16T15:33:34.156Z,7.55
2022-08-16T15:36:02.655Z,8.90
2022-08-16T15:38:57.785Z,10.80
2022-08-16T15:41:39.383Z,6.85
2022-08-16T15:44:12.995Z,8.00
2022-08-16T15:46:56.389Z,5.07
2022-08-16T15:49:37.899Z,7.00
2022-08-16T15:52:24.852Z,8.85
2022-08-16T15:54:58.150Z,8.07
2022-08-16T15:57:26.827Z,8.68
2022-08-16T15:59:55.800Z,8.57
2022-08-16T16:02:30.985Z,8.65
2022-08-16T16:05:07.324Z,10.85
2022-08-16T16:07:37.363Z,8.35
2022-08-16T16:12:51.582Z,7.40
2022-08-16T16:15:29.469Z,9.57
2022-08-16T16:17:56.734Z,9.38
2022-08-16T16:20:27.554Z,11.77
2022-08-16T16:23:04.413Z,6.35
2022-08-16T16:25:39.030Z,7.65
2022-08-16T16:28:12.761Z,6.82
2022-08-16T16:30:44.459Z,8.80
2022-08-16T16:33:21.231Z,9.23
2022-08-16T16:35:55.426Z,10.07
2022-08-16T16:38:30.879Z,8.57
2022-08-16T16:41:04.794Z,6.78
2022-08-16T16:43:42.397Z,10.25
2022-08-16T16:46:40.772Z,7.75
2022-08-16T16:48:59.939Z,7.72
2022-08-16T16:51:28.073Z,6.78
2022-08-16T16:53:57.032Z,7.28
2022-08-16T16:56:30.168Z,8.63
2022-08-16T16:59:01.730Z,9.25
2022-08-16T17:01:57.742Z,7.55
2022-08-16T17:04:31.711Z,6.35
2022-08-16T17:07:00.999Z,6.45
2022-08-16T17:09:27.887Z,7.20
2022-08-16T17:11:55.944Z,6.18
2022-08-16T17:14:32.689Z,6.18
2022-08-16T17:17:04.284Z,6.90
2022-08-16T17:19:32.011Z,7.07
2022-08-16T17:22:00.293Z,6.22
2022-08-16T17:24:39.404Z,6.05
2022-08-16T17:27:08.491Z,7.28
2022-08-16T17:29:42.904Z,4.78
2022-08-16T17:32:46.845Z,8.13
2022-08-16T17:35:08.555Z,6.20
2022-08-16T17:37:42.229Z,7.15
2022-08-16T17:40:40.837Z,7.03
2022-08-16T17:43:03.811Z,8.27
2022-08-16T17:45:31.349Z,10.43
2022-08-16T17:48:16.820Z,6.05
2022-08-16T17:51:03.203Z,7.82
2022-08-16T17:53:31.744Z,5.63
2022-08-16T17:55:59.462Z,5.97
2022-08-16T17:58:26.616Z,6.38
2022-08-16T18:00:56.366Z,6.50
2022-08-16T18:04:06.405Z,7.22
2022-08-16T18:06:24.948Z,7.57
2022-08-16T18:09:01.662Z,9.00
2022-08-16T18:11:34.043Z,7.28
2022-08-16T18:14:00.974Z,8.20
2022-08-16T18:16:27.773Z,7.75
2022-08-16T18:18:54.591Z,7.63
2022-08-16T18:21:40.531Z,7.32
2022-08-16T18:24:08.359Z,8.50
2022-08-16T18:26:35.863Z,8.88
2022-08-16T18:29:03.128Z,7.28
2022-08-16T18:31:33.092Z,8.30
2022-08-16T18:34:01.287Z,8.25
2022-08-16T18:36:28.473Z,7.72
2022-08-16T18:38:55.589Z,8.70
2022-08-16T18:41:24.734Z,7.28
2022-08-16T18:44:24.022Z,8.57
2022-08-16T18:46:43.720Z,8.27
2022-08-16T18:49:13.168Z,9.93
2022-08-16T18:51:45.677Z,7.22
2022-08-16T18:54:18.108Z,9.05
2022-08-16T18:56:55.125Z,8.80
2022-08-16T18:59:27.970Z,9.55
2022-08-16T19:02:00.245Z,8.57
2022-08-16T19:04:47.772Z,11.50
2022-08-16T19:07:31.302Z,10.57
2022-08-16T19:10:00.438Z,8.88
2022-08-16T19:12:38.603Z,9.27
2022-08-16T19:15:14.372Z,12.48
2022-08-16T19:17:43.068Z,10.23
2022-08-16T19:20:11.172Z,11.68
2022-08-16T19:23:02.367Z,12.13
2022-08-16T19:25:47.676Z,13.77
2022-08-16T19:28:49.879Z,12.00
2022-08-16T19:31:06.461Z,9.40
2022-08-16T19:33:33.220Z,9.68
2022-08-16T19:36:00.630Z,11.02
2022-08-16T19:38:29.297Z,11.45
2022-08-16T19:40:56.210Z,13.93
2022-08-16T19:43:22.935Z,9.43
2022-08-16T19:45:51.942Z,9.25
2022-08-16T19:48:18.844Z,10.75
2022-08-16T19:50:45.577Z,8.80
2022-08-16T19:53:18.837Z,10.90
2022-08-16T19:55:47.603Z,10.00
2022-08-16T19:58:15.540Z,9.98
2022-08-16T20:00:43.530Z,11.23
2022-08-16T20:03:17.175Z,11.68
2022-08-16T20:05:44.998Z,12.38
2022-08-16T20:08:12.728Z,11.10
2022-08-16T20:10:42.617Z,10.18
2022-08-16T20:13:27.375Z,11.65
2022-08-16T20:15:54.237Z,10.88
2022-08-16T20:18:24.640Z,12.68
2022-08-16T20:20:51.907Z,11.63
2022-08-16T20:23:25.509Z,11.07
2022-08-16T20:25:55.827Z,14.23
2022-08-16T20:28:51.834Z,8.82
2022-08-16T20:31:11.530Z,12.27
2022-08-16T20:33:38.323Z,12.77
2022-08-16T20:36:05.275Z,11.88
2022-08-16T20:38:31.976Z,11.85
2022-08-16T20:40:58.763Z,11.93
2022-08-16T20:43:25.481Z,10.95
2022-08-16T20:45:52.371Z,11.70
2022-08-16T20:48:20.260Z,11.95
2022-08-16T20:50:46.950Z,10.90
2022-08-16T20:53:13.660Z,10.77
2022-08-16T20:55:41.669Z,11.27
2022-08-16T20:58:08.667Z,11.20
2022-08-16T21:00:35.601Z,11.07
2022-08-16T21:03:13.042Z,9.73
2022-08-16T21:05:39.995Z,13.30
2022-08-16T21:08:50.930Z,13.35
2022-08-16T21:10:54.802Z,12.13
2022-08-16T21:13:21.853Z,11.10
2022-08-16T21:15:49.042Z,13.93
2022-08-16T21:18:16.124Z,10.77
2022-08-16T21:20:45.862Z,11.52
2022-08-16T21:23:12.586Z,11.50
2022-08-16T21:25:58.106Z,11.82
2022-08-16T21:28:40.878Z,11.20
2022-08-16T21:31:15.864Z,11.13
2022-08-16T21:33:43.571Z,11.85
2022-08-16T21:36:11.882Z,13.77
2022-08-16T21:38:39.729Z,10.93
2022-08-16T21:41:08.298Z,12.95
2022-08-16T21:43:35.354Z,12.13
2022-08-16T21:46:04.381Z,9.68
2022-08-16T21:48:35.819Z,9.40
2022-08-16T21:51:09.092Z,10.15
2022-08-16T21:53:36.346Z,11.80
2022-08-16T21:56:06.572Z,10.30
2022-08-16T21:58:35.682Z,9.93
2022-08-16T22:01:03.016Z,9.57
2022-08-16T22:03:32.937Z,8.73
2022-08-16T22:06:11.917Z,8.93
2022-08-16T22:08:50.267Z,11.95
2022-08-16T22:11:23.474Z,9.68
2022-08-16T22:13:58.868Z,11.25
2022-08-16T22:16:33.027Z,10.85
2022-08-16T22:19:01.326Z,9.95
2022-08-16T22:21:28.686Z,10.93
2022-08-16T22:23:57.820Z,10.60
2022-08-16T22:26:32.161Z,10.35
2022-08-16T22:29:01.994Z,9.40
2022-08-16T22:31:29.105Z,11.20
2022-08-16T22:33:56.701Z,11.15
2022-08-16T22:36:28.151Z,9.35
2022-08-16T22:38:58.802Z,9.77
2022-08-16T22:41:28.368Z,10.10
2022-08-16T22:43:55.764Z,8.77
2022-08-16T22:46:22.476Z,9.30
2022-08-16T22:48:51.214Z,9.25
2022-08-16T22:51:20.232Z,10.07
2022-08-16T22:53:48.011Z,10.07
2022-08-16T22:56:18.114Z,10.45
2022-08-16T22:58:46.043Z,9.27
2022-08-16T23:01:14.794Z,9.65
2022-08-16T23:03:42.492Z,10.07
2022-08-16T23:06:11.918Z,9.07
2022-08-16T23:08:41.429Z,11.07
2022-08-16T23:11:22.667Z,11.20
2022-08-16T23:13:54.721Z,9.70
2022-08-16T23:16:32.232Z,11.60
2022-08-16T23:19:12.292Z,9.52
2022-08-16T23:21:42.618Z,8.90
2022-08-16T23:24:12.146Z,9.35
2022-08-16T23:26:45.942Z,9.35
2022-08-16T23:29:26.286Z,12.05
2022-08-16T23:31:59.336Z,10.75
2022-08-16T23:34:27.938Z,10.10
2022-08-16T23:36:55.439Z,10.00
2022-08-16T23:39:22.547Z,10.23
2022-08-16T23:41:49.422Z,10.20
2022-08-16T23:44:56.122Z,9.82
2022-08-16T23:47:05.884Z,11.90
2022-08-16T23:49:59.360Z,9.15
2022-08-16T23:52:43.743Z,9.50
2022-08-16T23:55:08.333Z,10.40
2022-08-16T23:57:35.839Z,10.77
